Dati Storici

Data ora Umidita' aria (%) Temperatura aria (°C) Rad globale (W/m²) Gonioanemometro (°) Tacoanemometro (m/s) Pioggia (mm)
02-07-2020 16:50 63.6 % 28.687 103.264 1.217 0 0
02-07-2020 16:40 64.8 % 28.464 142.164 0.027 0 0
02-07-2020 16:30 65 % 28.508 158.774 -0.052 0 0
02-07-2020 16:20 66.3 % 28.501 161.506 -0.049 0 0
02-07-2020 16:10 66.1 % 27.894 84.45 1.734 0 0
02-07-2020 16:00 67.2 % 27.985 69.555 0.443 0 0
02-07-2020 15:50 66.1 % 28.067 146.36 1.745 0 0
02-07-2020 15:40 64.8 % 28.235 -74.399 1.969 0 0
02-07-2020 15:30 65.4 % 28.147 -70.996 1.609 0 0
02-07-2020 15:20 66 % 28.65 -68.595 1.57 0 0
02-07-2020 15:10 65.8 % 27.988 -52.556 0.471 0 0
02-07-2020 15:00 66.5 % 28.316 64.036 1.001 0 0
02-07-2020 14:50 66.3 % 28.051 83.957 1.582 0 0
02-07-2020 14:40 65 % 28.081 118.524 2.248 0 0
02-07-2020 14:30 66.6 % 28.002 113.647 1.116 0 0
02-07-2020 14:20 66.1 % 27.969 123.118 1.586 0 0
02-07-2020 14:10 66.5 % 27.498 149.875 0.773 0 0
02-07-2020 14:00 65.7 % 27.084 94.892 0.637 0 0
02-07-2020 13:50 65.8 % 27.913 125.91 2.178 0 0
02-07-2020 13:40 65.7 % 27.555 84.311 1.414 0 0

I dati sono presentati in modo automatico a scopo informativo. In seguito a verifica i dati possono subire modifiche o essere invalidati e non riportati negli archivi definitivi.